sensor_id;sensor_type;location;lat;lon;timestamp;P1;durP1;ratioP1;P2;durP2;ratioP2
61391;SDS011;47261;52.892;5.738;2023-04-21T00:00:31;35.85;;;16.45;;
61391;SDS011;47261;52.892;5.738;2023-04-21T00:02:57;27.87;;;13.23;;
61391;SDS011;47261;52.892;5.738;2023-04-21T00:05:23;30.13;;;14.63;;
61391;SDS011;47261;52.892;5.738;2023-04-21T00:07:48;27.63;;;14.13;;
61391;SDS011;47261;52.892;5.738;2023-04-21T00:10:14;31.65;;;14.50;;
61391;SDS011;47261;52.892;5.738;2023-04-21T00:12:40;29.73;;;13.60;;
61391;SDS011;47261;52.892;5.738;2023-04-21T00:15:06;32.67;;;15.77;;
61391;SDS011;47261;52.892;5.738;2023-04-21T00:17:32;29.43;;;14.47;;
61391;SDS011;47261;52.892;5.738;2023-04-21T00:19:57;32.35;;;14.75;;
61391;SDS011;47261;52.892;5.738;2023-04-21T00:22:23;30.60;;;14.43;;
61391;SDS011;47261;52.892;5.738;2023-04-21T00:24:49;28.10;;;14.03;;
61391;SDS011;47261;52.892;5.738;2023-04-21T00:27:14;26.50;;;13.90;;
61391;SDS011;47261;52.892;5.738;2023-04-21T00:29:40;26.23;;;12.35;;
61391;SDS011;47261;52.892;5.738;2023-04-21T00:32:06;31.37;;;12.70;;
61391;SDS011;47261;52.892;5.738;2023-04-21T00:34:33;27.15;;;12.32;;
61391;SDS011;47261;52.892;5.738;2023-04-21T00:37:00;28.58;;;13.50;;
61391;SDS011;47261;52.892;5.738;2023-04-21T00:39:25;27.58;;;14.20;;
61391;SDS011;47261;52.892;5.738;2023-04-21T00:41:51;24.67;;;12.17;;
61391;SDS011;47261;52.892;5.738;2023-04-21T00:44:16;28.83;;;10.80;;
61391;SDS011;47261;52.892;5.738;2023-04-21T00:46:42;22.83;;;11.98;;
61391;SDS011;47261;52.892;5.738;2023-04-21T00:49:08;22.70;;;9.97;;
61391;SDS011;47261;52.892;5.738;2023-04-21T00:51:34;26.48;;;10.48;;
61391;SDS011;47261;52.892;5.738;2023-04-21T00:54:04;22.55;;;10.55;;
61391;SDS011;47261;52.892;5.738;2023-04-21T00:56:32;22.83;;;10.20;;
61391;SDS011;47261;52.892;5.738;2023-04-21T00:58:59;18.48;;;9.27;;
61391;SDS011;47261;52.892;5.738;2023-04-21T01:01:29;20.65;;;9.15;;
61391;SDS011;47261;52.892;5.738;2023-04-21T01:03:58;27.73;;;11.32;;
61391;SDS011;47261;52.892;5.738;2023-04-21T01:06:28;24.25;;;10.90;;
61391;SDS011;47261;52.892;5.738;2023-04-21T01:09:00;20.83;;;9.00;;
61391;SDS011;47261;52.892;5.738;2023-04-21T01:11:28;22.38;;;9.52;;
61391;SDS011;47261;52.892;5.738;2023-04-21T01:13:55;21.08;;;9.13;;
61391;SDS011;47261;52.892;5.738;2023-04-21T01:16:21;21.33;;;10.32;;
61391;SDS011;47261;52.892;5.738;2023-04-21T01:18:48;24.90;;;11.23;;
61391;SDS011;47261;52.892;5.738;2023-04-21T01:21:14;20.98;;;9.38;;
61391;SDS011;47261;52.892;5.738;2023-04-21T01:23:41;19.98;;;8.88;;
61391;SDS011;47261;52.892;5.738;2023-04-21T01:26:07;19.55;;;7.63;;
61391;SDS011;47261;52.892;5.738;2023-04-21T01:28:33;20.67;;;9.50;;
61391;SDS011;47261;52.892;5.738;2023-04-21T01:30:58;12.10;;;6.30;;
61391;SDS011;47261;52.892;5.738;2023-04-21T01:33:24;19.10;;;8.00;;
61391;SDS011;47261;52.892;5.738;2023-04-21T01:35:50;18.90;;;7.20;;
61391;SDS011;47261;52.892;5.738;2023-04-21T01:38:16;19.13;;;9.95;;
61391;SDS011;47261;52.892;5.738;2023-04-21T01:40:44;18.65;;;8.20;;
61391;SDS011;47261;52.892;5.738;2023-04-21T01:43:12;19.73;;;9.68;;
61391;SDS011;47261;52.892;5.738;2023-04-21T01:45:39;16.63;;;7.20;;
61391;SDS011;47261;52.892;5.738;2023-04-21T01:48:04;17.92;;;8.30;;
61391;SDS011;47261;52.892;5.738;2023-04-21T01:50:30;26.80;;;10.80;;
61391;SDS011;47261;52.892;5.738;2023-04-21T01:52:56;19.60;;;9.38;;
61391;SDS011;47261;52.892;5.738;2023-04-21T01:55:22;21.70;;;9.07;;
61391;SDS011;47261;52.892;5.738;2023-04-21T01:57:48;16.73;;;7.60;;
61391;SDS011;47261;52.892;5.738;2023-04-21T02:00:14;15.07;;;7.27;;
61391;SDS011;47261;52.892;5.738;2023-04-21T02:02:40;19.73;;;8.20;;
61391;SDS011;47261;52.892;5.738;2023-04-21T02:05:06;15.63;;;7.10;;
61391;SDS011;47261;52.892;5.738;2023-04-21T02:07:32;19.92;;;9.75;;
61391;SDS011;47261;52.892;5.738;2023-04-21T02:09:57;16.00;;;7.37;;
61391;SDS011;47261;52.892;5.738;2023-04-21T02:12:23;18.53;;;8.33;;
61391;SDS011;47261;52.892;5.738;2023-04-21T02:14:49;15.27;;;7.93;;
61391;SDS011;47261;52.892;5.738;2023-04-21T02:17:14;16.47;;;7.47;;
61391;SDS011;47261;52.892;5.738;2023-04-21T02:19:41;17.92;;;7.38;;
61391;SDS011;47261;52.892;5.738;2023-04-21T02:22:07;19.17;;;8.70;;
61391;SDS011;47261;52.892;5.738;2023-04-21T02:24:34;17.52;;;7.40;;
61391;SDS011;47261;52.892;5.738;2023-04-21T02:27:00;16.00;;;7.60;;
61391;SDS011;47261;52.892;5.738;2023-04-21T02:29:26;12.30;;;5.72;;
61391;SDS011;47261;52.892;5.738;2023-04-21T02:31:52;18.85;;;7.90;;
61391;SDS011;47261;52.892;5.738;2023-04-21T02:34:17;15.80;;;5.37;;
61391;SDS011;47261;52.892;5.738;2023-04-21T02:36:44;13.05;;;6.15;;
61391;SDS011;47261;52.892;5.738;2023-04-21T02:39:10;15.13;;;6.00;;
61391;SDS011;47261;52.892;5.738;2023-04-21T02:41:36;11.98;;;6.13;;
61391;SDS011;47261;52.892;5.738;2023-04-21T02:44:01;14.07;;;6.50;;
61391;SDS011;47261;52.892;5.738;2023-04-21T02:46:27;14.80;;;6.63;;
61391;SDS011;47261;52.892;5.738;2023-04-21T02:48:53;13.80;;;5.70;;
61391;SDS011;47261;52.892;5.738;2023-04-21T02:51:18;12.95;;;6.35;;
61391;SDS011;47261;52.892;5.738;2023-04-21T02:53:44;13.07;;;5.53;;
61391;SDS011;47261;52.892;5.738;2023-04-21T02:56:09;11.30;;;5.50;;
61391;SDS011;47261;52.892;5.738;2023-04-21T02:58:35;15.23;;;5.93;;
61391;SDS011;47261;52.892;5.738;2023-04-21T03:01:02;16.02;;;6.20;;
61391;SDS011;47261;52.892;5.738;2023-04-21T03:03:29;12.18;;;6.93;;
61391;SDS011;47261;52.892;5.738;2023-04-21T03:05:59;15.35;;;5.75;;
61391;SDS011;47261;52.892;5.738;2023-04-21T03:08:26;12.63;;;6.07;;
61391;SDS011;47261;52.892;5.738;2023-04-21T03:10:52;14.50;;;7.75;;
61391;SDS011;47261;52.892;5.738;2023-04-21T03:13:17;16.90;;;7.18;;
61391;SDS011;47261;52.892;5.738;2023-04-21T03:15:44;16.80;;;6.83;;
61391;SDS011;47261;52.892;5.738;2023-04-21T03:18:10;13.95;;;5.72;;
61391;SDS011;47261;52.892;5.738;2023-04-21T03:20:36;18.80;;;7.28;;
61391;SDS011;47261;52.892;5.738;2023-04-21T03:23:01;11.70;;;5.27;;
61391;SDS011;47261;52.892;5.738;2023-04-21T03:25:27;11.55;;;5.65;;
61391;SDS011;47261;52.892;5.738;2023-04-21T03:27:53;17.83;;;8.00;;
61391;SDS011;47261;52.892;5.738;2023-04-21T03:30:19;15.07;;;7.22;;
61391;SDS011;47261;52.892;5.738;2023-04-21T03:32:45;13.27;;;5.65;;
61391;SDS011;47261;52.892;5.738;2023-04-21T03:35:11;14.60;;;6.83;;
61391;SDS011;47261;52.892;5.738;2023-04-21T03:37:36;12.35;;;5.43;;
61391;SDS011;47261;52.892;5.738;2023-04-21T03:40:02;11.93;;;5.30;;
61391;SDS011;47261;52.892;5.738;2023-04-21T03:42:30;13.50;;;5.82;;
61391;SDS011;47261;52.892;5.738;2023-04-21T03:44:56;16.60;;;6.85;;
61391;SDS011;47261;52.892;5.738;2023-04-21T03:47:26;11.60;;;5.57;;
61391;SDS011;47261;52.892;5.738;2023-04-21T03:49:51;18.65;;;7.97;;
61391;SDS011;47261;52.892;5.738;2023-04-21T03:52:17;11.87;;;6.03;;
61391;SDS011;47261;52.892;5.738;2023-04-21T03:54:42;16.27;;;6.90;;
61391;SDS011;47261;52.892;5.738;2023-04-21T03:57:08;19.53;;;8.30;;
61391;SDS011;47261;52.892;5.738;2023-04-21T03:59:33;15.93;;;6.13;;
61391;SDS011;47261;52.892;5.738;2023-04-21T04:01:59;18.42;;;6.90;;
61391;SDS011;47261;52.892;5.738;2023-04-21T04:04:25;16.07;;;5.93;;
61391;SDS011;47261;52.892;5.738;2023-04-21T04:06:50;15.60;;;6.75;;
61391;SDS011;47261;52.892;5.738;2023-04-21T04:09:16;12.03;;;4.77;;
61391;SDS011;47261;52.892;5.738;2023-04-21T04:11:41;15.30;;;6.87;;
61391;SDS011;47261;52.892;5.738;2023-04-21T04:14:07;15.27;;;8.00;;
61391;SDS011;47261;52.892;5.738;2023-04-21T04:16:33;20.83;;;8.50;;
61391;SDS011;47261;52.892;5.738;2023-04-21T04:18:59;19.00;;;8.30;;
61391;SDS011;47261;52.892;5.738;2023-04-21T04:21:25;19.08;;;7.90;;
61391;SDS011;47261;52.892;5.738;2023-04-21T04:23:52;17.65;;;8.73;;
61391;SDS011;47261;52.892;5.738;2023-04-21T04:26:18;17.93;;;9.20;;
61391;SDS011;47261;52.892;5.738;2023-04-21T04:28:44;15.50;;;7.18;;
61391;SDS011;47261;52.892;5.738;2023-04-21T04:31:10;12.05;;;5.60;;
61391;SDS011;47261;52.892;5.738;2023-04-21T04:33:39;20.10;;;9.20;;
61391;SDS011;47261;52.892;5.738;2023-04-21T04:36:06;17.25;;;7.43;;
61391;SDS011;47261;52.892;5.738;2023-04-21T04:38:32;20.98;;;9.05;;
61391;SDS011;47261;52.892;5.738;2023-04-21T04:40:59;18.88;;;8.52;;
61391;SDS011;47261;52.892;5.738;2023-04-21T04:43:26;20.50;;;8.48;;
61391;SDS011;47261;52.892;5.738;2023-04-21T04:45:52;24.93;;;9.43;;
61391;SDS011;47261;52.892;5.738;2023-04-21T04:48:18;14.68;;;6.53;;
61391;SDS011;47261;52.892;5.738;2023-04-21T04:50:43;17.23;;;8.07;;
61391;SDS011;47261;52.892;5.738;2023-04-21T04:53:09;19.15;;;8.05;;
61391;SDS011;47261;52.892;5.738;2023-04-21T04:55:35;18.73;;;7.38;;
61391;SDS011;47261;52.892;5.738;2023-04-21T04:58:01;15.90;;;7.60;;
61391;SDS011;47261;52.892;5.738;2023-04-21T05:00:26;14.35;;;6.85;;
61391;SDS011;47261;52.892;5.738;2023-04-21T05:02:53;18.57;;;8.90;;
61391;SDS011;47261;52.892;5.738;2023-04-21T05:05:19;17.50;;;8.57;;
61391;SDS011;47261;52.892;5.738;2023-04-21T05:07:46;16.92;;;7.15;;
61391;SDS011;47261;52.892;5.738;2023-04-21T05:10:12;19.77;;;7.10;;
61391;SDS011;47261;52.892;5.738;2023-04-21T05:12:37;15.13;;;7.82;;
61391;SDS011;47261;52.892;5.738;2023-04-21T05:15:04;16.83;;;7.03;;
61391;SDS011;47261;52.892;5.738;2023-04-21T05:17:31;16.45;;;7.95;;
61391;SDS011;47261;52.892;5.738;2023-04-21T05:19:57;17.63;;;8.40;;
61391;SDS011;47261;52.892;5.738;2023-04-21T05:22:23;18.83;;;8.87;;
61391;SDS011;47261;52.892;5.738;2023-04-21T05:24:49;17.08;;;7.97;;
61391;SDS011;47261;52.892;5.738;2023-04-21T05:27:15;17.15;;;8.27;;
61391;SDS011;47261;52.892;5.738;2023-04-21T05:29:41;21.63;;;7.37;;
61391;SDS011;47261;52.892;5.738;2023-04-21T05:32:07;20.33;;;7.63;;
61391;SDS011;47261;52.892;5.738;2023-04-21T05:34:33;16.77;;;8.10;;
61391;SDS011;47261;52.892;5.738;2023-04-21T05:36:59;19.52;;;8.00;;
61391;SDS011;47261;52.892;5.738;2023-04-21T05:39:26;23.67;;;7.90;;
61391;SDS011;47261;52.892;5.738;2023-04-21T05:41:52;20.90;;;8.03;;
61391;SDS011;47261;52.892;5.738;2023-04-21T05:44:17;18.98;;;8.60;;
61391;SDS011;47261;52.892;5.738;2023-04-21T05:46:43;15.93;;;6.30;;
61391;SDS011;47261;52.892;5.738;2023-04-21T05:49:09;20.00;;;8.77;;
61391;SDS011;47261;52.892;5.738;2023-04-21T05:51:34;15.03;;;6.30;;
61391;SDS011;47261;52.892;5.738;2023-04-21T05:54:00;19.13;;;8.10;;
61391;SDS011;47261;52.892;5.738;2023-04-21T05:56:25;18.80;;;8.00;;
61391;SDS011;47261;52.892;5.738;2023-04-21T05:58:51;19.63;;;7.80;;
61391;SDS011;47261;52.892;5.738;2023-04-21T06:01:17;15.05;;;6.22;;
61391;SDS011;47261;52.892;5.738;2023-04-21T06:03:42;16.93;;;7.30;;
61391;SDS011;47261;52.892;5.738;2023-04-21T06:06:08;17.40;;;6.80;;
61391;SDS011;47261;52.892;5.738;2023-04-21T06:08:35;15.47;;;8.00;;
61391;SDS011;47261;52.892;5.738;2023-04-21T06:11:01;13.63;;;6.70;;
61391;SDS011;47261;52.892;5.738;2023-04-21T06:13:26;15.70;;;6.97;;
61391;SDS011;47261;52.892;5.738;2023-04-21T06:15:55;16.35;;;7.80;;
61391;SDS011;47261;52.892;5.738;2023-04-21T06:18:21;17.93;;;6.90;;
61391;SDS011;47261;52.892;5.738;2023-04-21T06:20:51;15.88;;;7.35;;
61391;SDS011;47261;52.892;5.738;2023-04-21T06:23:18;17.92;;;7.75;;
61391;SDS011;47261;52.892;5.738;2023-04-21T06:25:44;15.43;;;6.47;;
61391;SDS011;47261;52.892;5.738;2023-04-21T06:28:10;18.77;;;7.27;;
61391;SDS011;47261;52.892;5.738;2023-04-21T06:30:35;16.20;;;6.28;;
61391;SDS011;47261;52.892;5.738;2023-04-21T06:33:01;12.80;;;5.80;;
61391;SDS011;47261;52.892;5.738;2023-04-21T06:35:28;12.85;;;6.28;;
61391;SDS011;47261;52.892;5.738;2023-04-21T06:37:55;17.10;;;7.55;;
61391;SDS011;47261;52.892;5.738;2023-04-21T06:40:20;23.03;;;8.47;;
61391;SDS011;47261;52.892;5.738;2023-04-21T06:42:46;15.55;;;7.18;;
61391;SDS011;47261;52.892;5.738;2023-04-21T06:45:11;15.00;;;7.10;;
61391;SDS011;47261;52.892;5.738;2023-04-21T06:47:37;15.57;;;6.73;;
61391;SDS011;47261;52.892;5.738;2023-04-21T06:50:03;12.10;;;5.38;;
61391;SDS011;47261;52.892;5.738;2023-04-21T06:52:30;14.50;;;6.03;;
61391;SDS011;47261;52.892;5.738;2023-04-21T06:54:56;13.63;;;6.80;;
61391;SDS011;47261;52.892;5.738;2023-04-21T06:57:21;11.50;;;5.53;;
61391;SDS011;47261;52.892;5.738;2023-04-21T06:59:47;16.10;;;7.27;;
61391;SDS011;47261;52.892;5.738;2023-04-21T07:02:13;14.85;;;5.25;;
61391;SDS011;47261;52.892;5.738;2023-04-21T07:04:38;22.53;;;7.43;;
61391;SDS011;47261;52.892;5.738;2023-04-21T07:07:04;17.10;;;7.63;;
61391;SDS011;47261;52.892;5.738;2023-04-21T07:09:30;12.20;;;6.30;;
61391;SDS011;47261;52.892;5.738;2023-04-21T07:11:57;16.67;;;7.40;;
61391;SDS011;47261;52.892;5.738;2023-04-21T07:14:24;22.98;;;6.60;;
61391;SDS011;47261;52.892;5.738;2023-04-21T07:16:50;13.38;;;4.93;;
61391;SDS011;47261;52.892;5.738;2023-04-21T07:19:15;18.47;;;5.53;;
61391;SDS011;47261;52.892;5.738;2023-04-21T07:21:41;18.00;;;7.10;;
61391;SDS011;47261;52.892;5.738;2023-04-21T07:24:06;15.60;;;5.33;;
61391;SDS011;47261;52.892;5.738;2023-04-21T07:26:32;11.15;;;5.18;;
61391;SDS011;47261;52.892;5.738;2023-04-21T07:28:58;20.13;;;6.63;;
61391;SDS011;47261;52.892;5.738;2023-04-21T07:31:24;12.98;;;5.93;;
61391;SDS011;47261;52.892;5.738;2023-04-21T07:33:49;15.30;;;5.77;;
61391;SDS011;47261;52.892;5.738;2023-04-21T07:36:15;16.00;;;6.13;;
61391;SDS011;47261;52.892;5.738;2023-04-21T07:38:41;14.87;;;5.83;;
61391;SDS011;47261;52.892;5.738;2023-04-21T07:41:11;14.60;;;6.75;;
61391;SDS011;47261;52.892;5.738;2023-04-21T07:43:38;22.17;;;8.05;;
61391;SDS011;47261;52.892;5.738;2023-04-21T07:46:04;12.07;;;4.97;;
61391;SDS011;47261;52.892;5.738;2023-04-21T07:48:31;13.35;;;5.63;;
61391;SDS011;47261;52.892;5.738;2023-04-21T07:50:57;13.50;;;5.80;;
61391;SDS011;47261;52.892;5.738;2023-04-21T07:53:24;11.18;;;4.75;;
61391;SDS011;47261;52.892;5.738;2023-04-21T07:55:50;13.43;;;5.65;;
61391;SDS011;47261;52.892;5.738;2023-04-21T07:58:16;16.63;;;7.30;;
61391;SDS011;47261;52.892;5.738;2023-04-21T08:00:42;15.73;;;6.35;;
61391;SDS011;47261;52.892;5.738;2023-04-21T08:03:07;19.77;;;7.93;;
61391;SDS011;47261;52.892;5.738;2023-04-21T08:05:33;15.07;;;6.13;;
61391;SDS011;47261;52.892;5.738;2023-04-21T08:07:59;13.38;;;5.13;;
61391;SDS011;47261;52.892;5.738;2023-04-21T08:10:24;14.60;;;6.60;;
61391;SDS011;47261;52.892;5.738;2023-04-21T08:12:50;13.20;;;6.53;;
61391;SDS011;47261;52.892;5.738;2023-04-21T08:15:16;12.67;;;6.43;;
61391;SDS011;47261;52.892;5.738;2023-04-21T08:17:42;9.98;;;4.75;;
61391;SDS011;47261;52.892;5.738;2023-04-21T08:20:08;18.87;;;8.17;;
61391;SDS011;47261;52.892;5.738;2023-04-21T08:22:34;17.55;;;7.60;;
61391;SDS011;47261;52.892;5.738;2023-04-21T08:25:01;15.40;;;6.18;;
61391;SDS011;47261;52.892;5.738;2023-04-21T08:27:27;15.68;;;6.90;;
61391;SDS011;47261;52.892;5.738;2023-04-21T08:29:53;16.00;;;7.23;;
61391;SDS011;47261;52.892;5.738;2023-04-21T08:32:19;16.80;;;7.43;;
61391;SDS011;47261;52.892;5.738;2023-04-21T08:34:51;10.60;;;4.32;;
61391;SDS011;47261;52.892;5.738;2023-04-21T08:37:18;12.33;;;5.33;;
61391;SDS011;47261;52.892;5.738;2023-04-21T08:39:44;15.02;;;6.63;;
61391;SDS011;47261;52.892;5.738;2023-04-21T08:42:13;12.43;;;4.93;;
61391;SDS011;47261;52.892;5.738;2023-04-21T08:44:43;14.63;;;5.75;;
61391;SDS011;47261;52.892;5.738;2023-04-21T08:47:10;12.43;;;5.45;;
61391;SDS011;47261;52.892;5.738;2023-04-21T08:49:37;19.70;;;8.03;;
61391;SDS011;47261;52.892;5.738;2023-04-21T08:52:04;17.30;;;6.55;;
61391;SDS011;47261;52.892;5.738;2023-04-21T08:54:30;14.88;;;5.93;;
61391;SDS011;47261;52.892;5.738;2023-04-21T08:56:56;17.27;;;7.20;;
61391;SDS011;47261;52.892;5.738;2023-04-21T08:59:22;19.30;;;8.45;;
61391;SDS011;47261;52.892;5.738;2023-04-21T09:04:49;22.25;;;6.03;;
61391;SDS011;47261;52.892;5.738;2023-04-21T09:07:28;19.98;;;8.70;;
61391;SDS011;47261;52.892;5.738;2023-04-21T09:09:56;18.30;;;9.20;;
61391;SDS011;47261;52.892;5.738;2023-04-21T09:12:22;15.50;;;6.43;;
61391;SDS011;47261;52.892;5.738;2023-04-21T09:14:48;15.30;;;7.47;;
61391;SDS011;47261;52.892;5.738;2023-04-21T09:17:15;17.73;;;7.05;;
61391;SDS011;47261;52.892;5.738;2023-04-21T09:19:41;15.82;;;7.57;;
61391;SDS011;47261;52.892;5.738;2023-04-21T09:22:07;13.20;;;5.57;;
61391;SDS011;47261;52.892;5.738;2023-04-21T09:24:33;14.10;;;8.00;;
61391;SDS011;47261;52.892;5.738;2023-04-21T09:26:58;20.33;;;8.77;;
61391;SDS011;47261;52.892;5.738;2023-04-21T09:29:27;17.67;;;8.15;;
61391;SDS011;47261;52.892;5.738;2023-04-21T09:31:53;17.27;;;8.02;;
61391;SDS011;47261;52.892;5.738;2023-04-21T09:34:20;18.52;;;9.20;;
61391;SDS011;47261;52.892;5.738;2023-04-21T09:36:59;16.57;;;7.97;;
61391;SDS011;47261;52.892;5.738;2023-04-21T09:39:27;18.80;;;8.23;;
61391;SDS011;47261;52.892;5.738;2023-04-21T09:41:54;19.05;;;8.57;;
61391;SDS011;47261;52.892;5.738;2023-04-21T09:44:21;20.40;;;8.80;;
61391;SDS011;47261;52.892;5.738;2023-04-21T09:46:47;15.47;;;8.50;;
61391;SDS011;47261;52.892;5.738;2023-04-21T09:49:15;13.48;;;6.03;;
61391;SDS011;47261;52.892;5.738;2023-04-21T09:51:42;14.30;;;7.53;;
61391;SDS011;47261;52.892;5.738;2023-04-21T09:54:12;17.77;;;8.02;;
61391;SDS011;47261;52.892;5.738;2023-04-21T09:56:41;14.23;;;7.20;;
61391;SDS011;47261;52.892;5.738;2023-04-21T09:59:08;15.73;;;7.30;;
61391;SDS011;47261;52.892;5.738;2023-04-21T10:01:38;15.82;;;6.90;;
61391;SDS011;47261;52.892;5.738;2023-04-21T10:04:04;14.20;;;7.13;;
61391;SDS011;47261;52.892;5.738;2023-04-21T10:06:30;20.00;;;7.83;;
61391;SDS011;47261;52.892;5.738;2023-04-21T10:08:56;14.15;;;6.45;;
61391;SDS011;47261;52.892;5.738;2023-04-21T10:11:22;13.40;;;6.18;;
61391;SDS011;47261;52.892;5.738;2023-04-21T10:13:48;19.48;;;8.40;;
61391;SDS011;47261;52.892;5.738;2023-04-21T10:16:15;16.38;;;6.47;;
61391;SDS011;47261;52.892;5.738;2023-04-21T10:18:42;22.70;;;6.80;;
61391;SDS011;47261;52.892;5.738;2023-04-21T10:21:10;15.43;;;7.63;;
61391;SDS011;47261;52.892;5.738;2023-04-21T10:23:37;18.42;;;8.40;;
61391;SDS011;47261;52.892;5.738;2023-04-21T10:26:10;15.07;;;8.10;;
61391;SDS011;47261;52.892;5.738;2023-04-21T10:31:22;16.67;;;8.77;;
61391;SDS011;47261;52.892;5.738;2023-04-21T10:36:43;19.50;;;9.20;;
61391;SDS011;47261;52.892;5.738;2023-04-21T10:47:25;19.27;;;9.52;;
61391;SDS011;47261;52.892;5.738;2023-04-21T10:49:53;20.70;;;9.05;;
61391;SDS011;47261;52.892;5.738;2023-04-21T10:52:20;18.90;;;9.60;;
61391;SDS011;47261;52.892;5.738;2023-04-21T10:57:16;21.33;;;9.82;;
61391;SDS011;47261;52.892;5.738;2023-04-21T10:59:43;18.10;;;8.70;;
61391;SDS011;47261;52.892;5.738;2023-04-21T11:02:10;23.30;;;8.77;;
61391;SDS011;47261;52.892;5.738;2023-04-21T11:04:37;23.33;;;8.88;;
61391;SDS011;47261;52.892;5.738;2023-04-21T11:09:32;21.65;;;10.10;;
61391;SDS011;47261;52.892;5.738;2023-04-21T11:11:58;18.27;;;8.77;;
61391;SDS011;47261;52.892;5.738;2023-04-21T11:14:29;19.58;;;9.80;;
61391;SDS011;47261;52.892;5.738;2023-04-21T11:16:55;22.02;;;10.63;;
61391;SDS011;47261;52.892;5.738;2023-04-21T11:19:21;19.40;;;9.45;;
61391;SDS011;47261;52.892;5.738;2023-04-21T11:21:48;19.50;;;10.23;;
61391;SDS011;47261;52.892;5.738;2023-04-21T11:24:14;16.50;;;9.38;;
61391;SDS011;47261;52.892;5.738;2023-04-21T11:26:40;18.92;;;9.10;;
61391;SDS011;47261;52.892;5.738;2023-04-21T11:29:09;20.95;;;9.60;;
61391;SDS011;47261;52.892;5.738;2023-04-21T11:31:36;17.63;;;10.17;;
61391;SDS011;47261;52.892;5.738;2023-04-21T11:34:03;23.15;;;10.48;;
61391;SDS011;47261;52.892;5.738;2023-04-21T11:36:41;18.73;;;9.82;;
61391;SDS011;47261;52.892;5.738;2023-04-21T11:39:09;15.45;;;8.82;;
61391;SDS011;47261;52.892;5.738;2023-04-21T11:41:45;20.17;;;9.98;;
61391;SDS011;47261;52.892;5.738;2023-04-21T11:44:12;17.87;;;10.50;;
61391;SDS011;47261;52.892;5.738;2023-04-21T11:46:45;20.35;;;9.73;;
61391;SDS011;47261;52.892;5.738;2023-04-21T11:49:12;15.90;;;9.02;;
61391;SDS011;47261;52.892;5.738;2023-04-21T11:51:41;19.52;;;9.32;;
61391;SDS011;47261;52.892;5.738;2023-04-21T11:54:11;16.17;;;8.82;;
61391;SDS011;47261;52.892;5.738;2023-04-21T11:56:38;23.70;;;10.23;;
61391;SDS011;47261;52.892;5.738;2023-04-21T11:59:06;22.52;;;11.38;;
61391;SDS011;47261;52.892;5.738;2023-04-21T12:01:45;22.67;;;11.65;;
61391;SDS011;47261;52.892;5.738;2023-04-21T12:04:13;20.90;;;10.05;;
61391;SDS011;47261;52.892;5.738;2023-04-21T12:06:43;26.52;;;11.15;;
61391;SDS011;47261;52.892;5.738;2023-04-21T12:09:17;23.10;;;10.53;;
61391;SDS011;47261;52.892;5.738;2023-04-21T12:11:46;17.85;;;10.02;;
61391;SDS011;47261;52.892;5.738;2023-04-21T12:14:17;19.35;;;10.77;;
61391;SDS011;47261;52.892;5.738;2023-04-21T12:16:46;18.48;;;10.43;;
61391;SDS011;47261;52.892;5.738;2023-04-21T12:19:20;20.35;;;10.15;;
61391;SDS011;47261;52.892;5.738;2023-04-21T12:21:59;23.53;;;11.93;;
61391;SDS011;47261;52.892;5.738;2023-04-21T12:24:25;26.60;;;11.90;;
61391;SDS011;47261;52.892;5.738;2023-04-21T12:26:51;19.23;;;10.00;;
61391;SDS011;47261;52.892;5.738;2023-04-21T12:29:16;23.50;;;10.57;;
61391;SDS011;47261;52.892;5.738;2023-04-21T12:31:42;22.20;;;12.00;;
61391;SDS011;47261;52.892;5.738;2023-04-21T12:34:08;21.40;;;11.43;;
61391;SDS011;47261;52.892;5.738;2023-04-21T12:36:33;22.63;;;11.13;;
61391;SDS011;47261;52.892;5.738;2023-04-21T12:39:00;18.98;;;10.68;;
61391;SDS011;47261;52.892;5.738;2023-04-21T12:41:26;22.50;;;10.10;;
61391;SDS011;47261;52.892;5.738;2023-04-21T12:43:51;20.27;;;11.60;;
61391;SDS011;47261;52.892;5.738;2023-04-21T12:46:17;22.20;;;11.85;;
61391;SDS011;47261;52.892;5.738;2023-04-21T12:48:43;24.97;;;12.87;;
61391;SDS011;47261;52.892;5.738;2023-04-21T12:51:08;21.88;;;12.10;;
61391;SDS011;47261;52.892;5.738;2023-04-21T12:53:34;32.30;;;13.70;;
61391;SDS011;47261;52.892;5.738;2023-04-21T12:56:01;24.10;;;12.10;;
61391;SDS011;47261;52.892;5.738;2023-04-21T12:58:27;24.08;;;13.00;;
61391;SDS011;47261;52.892;5.738;2023-04-21T13:00:53;27.13;;;13.20;;
61391;SDS011;47261;52.892;5.738;2023-04-21T13:03:19;19.75;;;11.70;;
61391;SDS011;47261;52.892;5.738;2023-04-21T13:05:45;19.77;;;11.70;;
61391;SDS011;47261;52.892;5.738;2023-04-21T13:08:10;22.02;;;12.80;;
61391;SDS011;47261;52.892;5.738;2023-04-21T13:10:36;26.53;;;13.37;;
61391;SDS011;47261;52.892;5.738;2023-04-21T13:13:01;27.17;;;12.30;;
61391;SDS011;47261;52.892;5.738;2023-04-21T13:15:27;29.53;;;13.27;;
61391;SDS011;47261;52.892;5.738;2023-04-21T13:17:53;19.53;;;12.00;;
61391;SDS011;47261;52.892;5.738;2023-04-21T13:20:18;25.20;;;13.10;;
61391;SDS011;47261;52.892;5.738;2023-04-21T13:22:44;25.33;;;14.57;;
61391;SDS011;47261;52.892;5.738;2023-04-21T13:25:10;25.23;;;13.10;;
61391;SDS011;47261;52.892;5.738;2023-04-21T13:27:36;25.20;;;14.05;;
61391;SDS011;47261;52.892;5.738;2023-04-21T13:30:06;23.53;;;13.20;;
61391;SDS011;47261;52.892;5.738;2023-04-21T13:32:35;28.05;;;14.45;;
61391;SDS011;47261;52.892;5.738;2023-04-21T13:35:02;22.92;;;14.43;;
61391;SDS011;47261;52.892;5.738;2023-04-21T13:37:32;27.02;;;15.63;;
61391;SDS011;47261;52.892;5.738;2023-04-21T13:39:59;27.13;;;15.65;;
61391;SDS011;47261;52.892;5.738;2023-04-21T13:42:25;25.13;;;15.07;;
61391;SDS011;47261;52.892;5.738;2023-04-21T13:44:51;30.77;;;16.58;;
61391;SDS011;47261;52.892;5.738;2023-04-21T13:47:16;29.07;;;16.17;;
61391;SDS011;47261;52.892;5.738;2023-04-21T13:49:42;27.13;;;15.38;;
61391;SDS011;47261;52.892;5.738;2023-04-21T13:52:08;23.93;;;14.63;;
61391;SDS011;47261;52.892;5.738;2023-04-21T13:54:33;28.15;;;15.60;;
61391;SDS011;47261;52.892;5.738;2023-04-21T13:56:59;25.50;;;15.80;;
61391;SDS011;47261;52.892;5.738;2023-04-21T13:59:26;26.55;;;15.48;;
61391;SDS011;47261;52.892;5.738;2023-04-21T14:01:52;31.95;;;17.02;;
61391;SDS011;47261;52.892;5.738;2023-04-21T14:04:17;26.77;;;16.00;;
61391;SDS011;47261;52.892;5.738;2023-04-21T14:06:45;27.95;;;16.67;;
61391;SDS011;47261;52.892;5.738;2023-04-21T14:09:11;27.58;;;15.88;;
61391;SDS011;47261;52.892;5.738;2023-04-21T14:11:36;26.83;;;15.20;;
61391;SDS011;47261;52.892;5.738;2023-04-21T14:14:02;26.27;;;15.35;;
61391;SDS011;47261;52.892;5.738;2023-04-21T14:16:28;28.77;;;16.47;;
61391;SDS011;47261;52.892;5.738;2023-04-21T14:18:53;24.30;;;16.40;;
61391;SDS011;47261;52.892;5.738;2023-04-21T14:21:19;26.80;;;16.70;;
61391;SDS011;47261;52.892;5.738;2023-04-21T14:23:45;30.10;;;17.38;;
61391;SDS011;47261;52.892;5.738;2023-04-21T14:26:10;28.43;;;16.30;;
61391;SDS011;47261;52.892;5.738;2023-04-21T14:28:36;26.03;;;15.77;;
61391;SDS011;47261;52.892;5.738;2023-04-21T14:31:02;24.40;;;15.38;;
61391;SDS011;47261;52.892;5.738;2023-04-21T14:33:28;29.13;;;16.80;;
61391;SDS011;47261;52.892;5.738;2023-04-21T14:35:54;27.10;;;16.93;;
61391;SDS011;47261;52.892;5.738;2023-04-21T14:38:20;23.58;;;15.25;;
61391;SDS011;47261;52.892;5.738;2023-04-21T14:40:46;27.27;;;17.10;;
61391;SDS011;47261;52.892;5.738;2023-04-21T14:43:13;26.85;;;15.52;;
61391;SDS011;47261;52.892;5.738;2023-04-21T14:45:39;28.23;;;15.47;;
61391;SDS011;47261;52.892;5.738;2023-04-21T14:48:05;30.38;;;15.65;;